createdAt,value
2022-12-25T05:35:15.432Z,743.20
2022-12-25T05:37:42.097Z,736.88
2022-12-25T05:40:09.391Z,733.83
2022-12-25T05:42:36.003Z,744.20
2022-12-25T05:45:02.643Z,737.70
2022-12-25T05:47:29.254Z,741.13
2022-12-25T05:49:55.825Z,742.45
2022-12-25T05:52:22.455Z,740.23
2022-12-25T05:54:49.179Z,744.10
2022-12-25T05:57:15.881Z,738.70
2022-12-25T05:59:42.639Z,734.30
2022-12-25T06:02:09.365Z,728.95
2022-12-25T06:04:36.262Z,724.20
2022-12-25T06:07:03.220Z,728.00
2022-12-25T06:09:29.870Z,722.97
2022-12-25T06:11:56.481Z,725.30
2022-12-25T06:14:23.092Z,727.58
2022-12-25T06:16:53.605Z,720.88
2022-12-25T06:19:21.351Z,727.00
2022-12-25T06:21:48.196Z,726.47
2022-12-25T06:24:21.073Z,720.47
2022-12-25T06:26:48.639Z,720.33
2022-12-25T06:29:15.573Z,722.97
2022-12-25T06:31:42.243Z,727.80
2022-12-25T06:34:09.054Z,725.95
2022-12-25T06:36:37.531Z,729.20
2022-12-25T06:39:04.494Z,718.20
2022-12-25T06:41:31.419Z,726.75
2022-12-25T06:44:00.299Z,725.63
2022-12-25T06:46:29.438Z,727.83
2022-12-25T06:48:58.023Z,732.72
2022-12-25T06:51:28.127Z,729.10
2022-12-25T06:53:55.699Z,731.60
2022-12-25T06:56:25.809Z,729.50
2022-12-25T06:59:07.424Z,729.75
2022-12-25T07:01:46.268Z,732.75
2022-12-25T07:04:26.941Z,725.17
2022-12-25T07:06:53.628Z,716.27
2022-12-25T07:09:20.238Z,727.07
2022-12-25T07:11:46.941Z,709.60
2022-12-25T07:14:24.426Z,714.45
2022-12-25T07:16:51.803Z,716.22
2022-12-25T07:19:19.162Z,727.97
2022-12-25T07:21:46.238Z,719.10
2022-12-25T07:24:18.534Z,724.93
2022-12-25T07:26:45.181Z,725.40
2022-12-25T07:29:11.903Z,733.00
2022-12-25T07:31:38.581Z,731.40
2022-12-25T07:34:05.256Z,719.67
2022-12-25T07:36:32.041Z,733.60
2022-12-25T07:38:58.704Z,723.85
2022-12-25T07:41:25.354Z,726.03
2022-12-25T07:43:53.853Z,727.72
2022-12-25T07:46:22.719Z,730.25
2022-12-25T07:48:49.773Z,730.80
2022-12-25T07:51:16.717Z,724.33
2022-12-25T07:53:43.413Z,734.80
2022-12-25T07:56:15.789Z,726.05
2022-12-25T07:58:43.218Z,729.65
2022-12-25T08:01:20.071Z,720.53
2022-12-25T08:03:56.870Z,729.42
2022-12-25T08:06:29.421Z,725.65
2022-12-25T08:08:57.130Z,729.30
2022-12-25T08:11:23.787Z,726.28
2022-12-25T08:13:50.474Z,729.95
2022-12-25T08:16:17.137Z,724.10
2022-12-25T08:18:44.315Z,727.90
2022-12-25T08:21:13.861Z,729.58
2022-12-25T08:23:43.095Z,730.97
2022-12-25T08:26:13.893Z,729.20
2022-12-25T08:28:41.146Z,734.25
2022-12-25T08:31:15.156Z,731.40
2022-12-25T08:33:42.501Z,729.08
2022-12-25T08:36:11.017Z,732.90
2022-12-25T08:38:38.470Z,729.70
2022-12-25T08:41:05.569Z,731.67
2022-12-25T08:43:32.248Z,724.75
2022-12-25T08:45:58.973Z,734.65
2022-12-25T08:48:25.762Z,730.03
2022-12-25T08:50:53.165Z,725.78
2022-12-25T08:53:20.692Z,732.50
2022-12-25T08:55:47.563Z,737.88
2022-12-25T08:58:14.658Z,734.25
2022-12-25T09:00:41.407Z,737.67
2022-12-25T09:03:08.126Z,745.08
2022-12-25T09:05:36.406Z,747.40
2022-12-25T09:08:03.279Z,771.20
2022-12-25T09:10:30.432Z,781.43
2022-12-25T09:12:57.155Z,810.70
2022-12-25T09:15:23.806Z,814.60
2022-12-25T09:17:50.469Z,821.15
2022-12-25T09:20:17.136Z,834.55
2022-12-25T09:22:43.850Z,834.75
2022-12-25T09:25:10.794Z,828.08
2022-12-25T09:27:37.594Z,826.92
2022-12-25T09:30:05.497Z,826.78
2022-12-25T09:32:32.139Z,823.80
2022-12-25T09:34:58.877Z,823.20
2022-12-25T09:37:25.528Z,818.03
2022-12-25T09:39:52.210Z,811.53
2022-12-25T09:42:25.169Z,810.38
2022-12-25T09:45:11.135Z,801.05
2022-12-25T09:47:40.900Z,802.65
2022-12-25T09:50:12.183Z,805.33
2022-12-25T09:52:57.824Z,799.22
2022-12-25T09:55:26.750Z,807.28
2022-12-25T09:57:56.562Z,798.53
2022-12-25T10:00:28.684Z,796.50
2022-12-25T10:03:19.043Z,792.42
2022-12-25T10:06:17.451Z,794.87
2022-12-25T10:08:56.562Z,792.22
2022-12-25T10:11:28.983Z,786.07
2022-12-25T10:14:30.727Z,787.67
2022-12-25T10:17:23.631Z,784.25
2022-12-25T10:20:38.007Z,780.75
2022-12-25T10:23:13.824Z,789.10
2022-12-25T10:25:41.726Z,789.70
2022-12-25T10:28:20.024Z,784.80
2022-12-25T10:30:48.461Z,798.67
2022-12-25T10:33:17.440Z,781.95
2022-12-25T10:35:45.250Z,788.53
2022-12-25T10:38:16.066Z,792.72
2022-12-25T10:41:29.029Z,797.42
2022-12-25T10:43:57.319Z,794.43
2022-12-25T10:46:27.468Z,800.35
2022-12-25T10:49:00.782Z,801.22
2022-12-25T10:51:34.138Z,807.30
2022-12-25T10:54:18.771Z,808.60
2022-12-25T10:57:00.972Z,807.65
2022-12-25T10:59:30.337Z,813.97
2022-12-25T11:02:23.657Z,798.03
2022-12-25T11:04:51.555Z,799.72
2022-12-25T11:07:18.182Z,787.30
2022-12-25T11:10:02.718Z,785.35
2022-12-25T11:12:44.705Z,775.67
2022-12-25T11:15:42.767Z,774.58
2022-12-25T11:18:25.756Z,775.10
2022-12-25T11:20:58.248Z,777.72
2022-12-25T11:23:26.652Z,785.75
2022-12-25T11:26:02.290Z,789.23
2022-12-25T11:28:31.037Z,798.93
2022-12-25T11:31:02.890Z,813.40
2022-12-25T11:33:36.594Z,815.72
2022-12-25T11:36:13.486Z,811.65
2022-12-25T11:38:40.086Z,814.88
2022-12-25T11:41:10.247Z,810.92
2022-12-25T11:43:41.953Z,814.38
2022-12-25T11:46:18.317Z,816.40
2022-12-25T11:48:49.989Z,821.60
2022-12-25T11:51:19.585Z,816.67
2022-12-25T11:53:53.924Z,814.30
2022-12-25T11:56:23.793Z,817.20
2022-12-25T11:59:10.477Z,820.63
2022-12-25T12:01:45.333Z,814.78
2022-12-25T12:04:18.575Z,812.13
2022-12-25T12:07:04.954Z,811.72
2022-12-25T12:09:51.481Z,807.22
2022-12-25T12:12:29.564Z,805.42
2022-12-25T12:15:18.747Z,812.30
2022-12-25T12:17:45.475Z,812.55
2022-12-25T12:20:31.925Z,819.63
2022-12-25T12:23:00.604Z,815.25
2022-12-25T12:25:28.791Z,802.65
2022-12-25T12:28:05.147Z,804.60
2022-12-25T12:30:35.756Z,813.10
2022-12-25T12:33:05.470Z,813.65
2022-12-25T12:35:41.248Z,816.35
2022-12-25T12:38:14.931Z,814.80
2022-12-25T12:41:01.626Z,816.42
2022-12-25T12:43:39.740Z,811.38
2022-12-25T12:46:30.520Z,815.50
2022-12-25T12:49:08.785Z,812.15
2022-12-25T12:51:37.490Z,803.08
2022-12-25T12:54:21.785Z,808.63
2022-12-25T12:57:02.885Z,810.22
2022-12-25T12:59:47.938Z,812.72
2022-12-25T13:02:52.238Z,814.25
2022-12-25T13:05:43.505Z,810.55
2022-12-25T13:08:39.042Z,808.92
2022-12-25T13:11:18.292Z,808.95
2022-12-25T13:13:46.382Z,810.10
2022-12-25T13:16:32.067Z,809.30
2022-12-25T13:19:04.158Z,791.27
2022-12-25T13:21:31.094Z,783.30
2022-12-25T13:24:10.508Z,783.30
2022-12-25T13:26:39.166Z,761.77
2022-12-25T13:29:11.295Z,765.30
2022-12-25T13:31:41.104Z,767.80
2022-12-25T13:34:31.789Z,763.15
2022-12-25T13:37:13.908Z,765.20
2022-12-25T13:39:52.210Z,767.37
2022-12-25T13:42:22.340Z,775.43
2022-12-25T13:44:50.783Z,771.10
2022-12-25T13:47:30.862Z,768.10
2022-12-25T13:49:59.653Z,766.90
2022-12-25T13:52:37.677Z,751.78
2022-12-25T13:55:12.626Z,769.25
2022-12-25T13:57:51.396Z,770.28
2022-12-25T14:00:21.049Z,769.00
2022-12-25T14:02:48.464Z,749.80
2022-12-25T14:05:43.083Z,770.20
2022-12-25T14:08:21.942Z,769.37
2022-12-25T14:10:51.274Z,771.65
2022-12-25T14:13:20.760Z,776.63
2022-12-25T14:15:48.819Z,781.33
2022-12-25T14:18:18.172Z,786.25
2022-12-25T14:21:16.783Z,795.20
2022-12-25T14:23:46.408Z,800.45
2022-12-25T14:26:22.217Z,790.22
2022-12-25T14:29:13.957Z,786.83
2022-12-25T14:31:45.194Z,791.03
2022-12-25T14:34:20.060Z,780.90
2022-12-25T14:36:47.712Z,781.78
2022-12-25T14:39:31.876Z,775.67
2022-12-25T14:41:59.194Z,778.75
2022-12-25T14:44:38.719Z,788.70
2022-12-25T14:47:11.633Z,787.42
2022-12-25T14:49:38.408Z,786.72
2022-12-25T14:52:13.414Z,789.17
2022-12-25T14:54:44.068Z,782.65
2022-12-25T14:57:17.885Z,776.90
2022-12-25T14:59:44.659Z,781.75
2022-12-25T15:02:18.449Z,783.83
2022-12-25T15:04:45.526Z,779.75
2022-12-25T15:07:30.564Z,782.55
2022-12-25T15:10:27.165Z,782.90
2022-12-25T15:12:44.185Z,775.05
2022-12-25T15:15:10.986Z,783.42
2022-12-25T15:17:38.166Z,782.80
2022-12-25T15:20:06.357Z,782.70
2022-12-25T15:22:54.051Z,784.73
2022-12-25T15:25:21.770Z,783.05
2022-12-25T15:27:48.795Z,787.70
2022-12-25T15:30:15.608Z,795.95
2022-12-25T15:32:42.243Z,790.55
2022-12-25T15:35:16.008Z,785.25
2022-12-25T15:37:42.633Z,784.87
2022-12-25T15:40:12.140Z,790.07
2022-12-25T15:42:39.438Z,774.00
2022-12-25T15:45:14.529Z,781.08
2022-12-25T15:47:41.144Z,784.20
2022-12-25T15:50:08.923Z,780.55
2022-12-25T15:52:35.573Z,785.05
2022-12-25T15:55:02.174Z,793.20
2022-12-25T15:57:28.818Z,782.70
2022-12-25T15:59:55.466Z,792.70
2022-12-25T16:02:22.355Z,786.25
2022-12-25T16:04:50.985Z,784.15
2022-12-25T16:07:21.573Z,793.65
2022-12-25T16:09:48.218Z,786.85
2022-12-25T16:12:15.156Z,786.92
2022-12-25T16:14:42.042Z,788.50
2022-12-25T16:17:12.355Z,791.20
2022-12-25T16:19:39.030Z,788.55
2022-12-25T16:22:13.886Z,785.50
2022-12-25T16:24:40.815Z,787.57
2022-12-25T16:27:07.442Z,779.17
2022-12-25T16:29:34.069Z,784.92
2022-12-25T16:32:00.694Z,780.77
2022-12-25T16:34:27.368Z,786.30
2022-12-25T16:36:54.099Z,789.20
2022-12-25T16:39:21.854Z,789.35
2022-12-25T16:41:48.512Z,779.90
2022-12-25T16:44:15.235Z,790.30
2022-12-25T16:46:42.081Z,791.08
2022-12-25T16:49:08.926Z,795.10
2022-12-25T16:51:35.659Z,789.20
2022-12-25T16:54:02.392Z,790.30
2022-12-25T16:56:30.718Z,784.28
2022-12-25T16:58:58.524Z,784.45
2022-12-25T17:01:25.725Z,791.47
2022-12-25T17:03:52.759Z,781.60
2022-12-25T17:06:20.962Z,782.00
2022-12-25T17:08:47.702Z,782.45
2022-12-25T17:11:15.093Z,777.87
2022-12-25T17:13:45.662Z,782.30
2022-12-25T17:16:17.673Z,783.95
2022-12-25T17:18:44.606Z,779.50
2022-12-25T17:21:11.609Z,784.10
2022-12-25T17:23:38.724Z,782.30
2022-12-25T17:26:06.177Z,778.40
2022-12-25T17:28:34.561Z,771.20
2022-12-25T17:31:09.093Z,771.17
2022-12-25T17:33:37.970Z,780.30
2022-12-25T17:36:07.385Z,780.00
2022-12-25T17:38:34.670Z,768.50
2022-12-25T17:41:05.201Z,767.80
2022-12-25T17:43:32.711Z,767.40
2022-12-25T17:46:06.916Z,773.10
2022-12-25T17:48:36.188Z,757.70
2022-12-25T17:51:08.531Z,773.90
2022-12-25T17:53:36.558Z,780.70
2022-12-25T17:56:04.515Z,762.53
2022-12-25T17:58:31.275Z,769.15
2022-12-25T18:00:58.019Z,769.85
2022-12-25T18:03:24.804Z,772.50
2022-12-25T18:05:51.577Z,768.13
2022-12-25T18:08:18.208Z,770.40
2022-12-25T18:10:44.982Z,767.10
2022-12-25T18:13:12.156Z,772.70
2022-12-25T18:15:40.686Z,778.55
2022-12-25T18:18:08.056Z,770.60
2022-12-25T18:20:40.227Z,775.70
2022-12-25T18:23:07.931Z,761.73
2022-12-25T18:25:34.765Z,763.85
2022-12-25T18:28:02.786Z,773.88
2022-12-25T18:30:29.545Z,763.38
2022-12-25T18:32:56.207Z,771.00
2022-12-25T18:35:23.327Z,770.85
2022-12-25T18:37:50.093Z,771.03
2022-12-25T18:40:16.800Z,773.33
2022-12-25T18:42:46.164Z,767.20
2022-12-25T18:45:14.712Z,773.53
2022-12-25T18:47:41.878Z,771.88
2022-12-25T18:50:10.470Z,770.65
2022-12-25T18:52:49.609Z,771.10
2022-12-25T18:55:17.937Z,774.42
2022-12-25T18:57:44.572Z,774.97
2022-12-25T19:00:11.383Z,775.43
2022-12-25T19:02:38.149Z,762.83
2022-12-25T19:05:05.823Z,767.00
2022-12-25T19:07:32.463Z,767.00
2022-12-25T19:09:59.113Z,756.97
2022-12-25T19:12:25.790Z,754.25
2022-12-25T19:14:52.791Z,763.80
2022-12-25T19:17:19.470Z,764.60
2022-12-25T19:19:46.282Z,764.00
2022-12-25T19:22:13.184Z,771.30
2022-12-25T19:24:40.011Z,749.90
2022-12-25T19:27:06.805Z,762.83
2022-12-25T19:29:33.494Z,765.73
2022-12-25T19:32:00.129Z,770.93
2022-12-25T19:34:26.921Z,768.45
2022-12-25T19:36:53.553Z,768.80
2022-12-25T19:39:20.446Z,771.10
2022-12-25T19:41:47.371Z,768.90
2022-12-25T19:44:15.548Z,771.35
2022-12-25T19:46:42.620Z,770.50
2022-12-25T19:49:13.553Z,768.87
2022-12-25T19:51:43.887Z,768.50
2022-12-25T19:54:16.070Z,772.10
2022-12-25T19:56:43.412Z,773.95
2022-12-25T19:59:12.045Z,773.00
2022-12-25T20:01:39.449Z,771.40
2022-12-25T20:04:10.331Z,758.50
2022-12-25T20:06:39.101Z,774.20
2022-12-25T20:09:08.915Z,754.10
2022-12-25T20:11:37.003Z,759.20
2022-12-25T20:14:05.277Z,753.20
2022-12-25T20:16:32.391Z,751.80
2022-12-25T20:18:59.429Z,758.05
2022-12-25T20:21:27.245Z,755.15
2022-12-25T20:23:54.639Z,754.40
2022-12-25T20:26:25.332Z,757.55
2022-12-25T20:28:52.397Z,760.20
2022-12-25T20:33:47.894Z,754.30
2022-12-25T20:36:15.363Z,760.50
2022-12-25T20:41:28.515Z,761.50
2022-12-25T20:43:56.832Z,760.30
2022-12-25T20:46:24.517Z,746.85
2022-12-25T20:48:52.730Z,751.30
2022-12-25T20:51:22.217Z,753.60
2022-12-25T20:53:49.336Z,756.40
2022-12-25T20:56:19.016Z,745.45
2022-12-25T21:01:18.151Z,742.40
2022-12-25T21:03:45.637Z,750.95
2022-12-25T21:06:13.250Z,743.60
2022-12-25T21:08:40.984Z,737.30
2022-12-25T21:11:08.100Z,730.20
2022-12-25T21:18:31.643Z,728.50
2022-12-25T21:20:59.413Z,721.45
2022-12-25T21:23:28.863Z,725.10
2022-12-25T21:25:55.750Z,725.90
2022-12-25T21:28:24.223Z,722.50
2022-12-25T21:33:36.394Z,718.70
2022-12-25T21:36:10.452Z,723.20
2022-12-25T21:38:37.963Z,699.60
2022-12-25T21:41:10.055Z,703.80
2022-12-25T21:43:37.758Z,706.60
2022-12-25T21:46:06.549Z,706.40
2022-12-25T21:48:35.084Z,707.95
2022-12-25T21:51:26.251Z,697.40
2022-12-25T21:53:53.057Z,702.65
2022-12-25T21:56:19.777Z,703.50
2022-12-25T21:58:47.094Z,707.88
2022-12-25T22:01:16.959Z,711.63
2022-12-25T22:03:44.714Z,712.15
2022-12-25T22:06:31.083Z,708.70
2022-12-25T22:08:57.748Z,715.27
2022-12-25T22:11:46.147Z,714.10
2022-12-25T22:14:51.058Z,721.05
2022-12-25T22:17:41.957Z,725.22
2022-12-25T22:20:12.683Z,722.28
2022-12-25T22:22:39.274Z,730.50
2022-12-25T22:25:06.981Z,725.87
2022-12-25T22:27:36.409Z,729.53
2022-12-25T22:30:04.000Z,723.40
2022-12-25T22:32:30.615Z,726.10
2022-12-25T22:34:57.343Z,725.20
2022-12-25T22:37:24.087Z,718.45
2022-12-25T22:39:50.739Z,725.58
2022-12-25T22:42:17.647Z,729.77
2022-12-25T22:44:45.516Z,726.35
2022-12-25T22:47:12.172Z,726.60
2022-12-25T22:49:39.487Z,722.10
2022-12-25T22:52:08.012Z,727.20
2022-12-25T22:54:34.683Z,726.70
2022-12-25T22:57:01.420Z,738.20
2022-12-25T22:59:28.220Z,731.60
2022-12-25T23:01:55.099Z,730.90
2022-12-25T23:04:21.951Z,730.80
2022-12-25T23:06:48.678Z,732.75
2022-12-25T23:09:24.226Z,728.07
2022-12-25T23:11:51.380Z,729.85
2022-12-25T23:14:36.527Z,735.40
2022-12-25T23:17:03.285Z,736.40
2022-12-25T23:19:48.550Z,740.25
2022-12-25T23:22:34.017Z,732.50
2022-12-25T23:25:19.505Z,741.35
2022-12-25T23:27:46.093Z,736.35
2022-12-25T23:30:15.470Z,734.43
2022-12-25T23:32:43.853Z,737.50
2022-12-25T23:35:11.645Z,733.85
2022-12-25T23:37:38.225Z,734.30
2022-12-25T23:40:05.450Z,734.75
2022-12-25T23:42:32.081Z,728.40
2022-12-25T23:44:58.726Z,727.80
2022-12-25T23:47:25.344Z,734.90
2022-12-25T23:49:51.991Z,731.40
2022-12-25T23:52:18.659Z,732.20
2022-12-25T23:54:45.263Z,740.25
2022-12-25T23:57:11.897Z,733.10
2022-12-25T23:59:38.518Z,729.80
